Accueil
METAR-TAF:

METAR-TAF

Aéroports :

Paros, Grèce

latitude: 37-01-15N, longitude: 025-06-46E, altitude: 38 m

Observation

Le bulletin a été fait il y a 38 minutes, à 10:50 UTC
Vent 18 kt de nord
Température 11°C
Humidité 54%
Pression 1033 hPa
Visibilité 10 km ou plus
Nuages fragmentés à une hauteur de 3000 ft

METAR: LGPA 201050Z 36018KT 9999 BKN030 11/02 Q1033

Heure: 13:28 (11:28 UTC)


TAF: absent

Observations et prévisions météorologiques de plus de 4000 aéroports (messages METAR et TAF).

Les stations disponibles sont représentées par des disques jaunes et rouges sur la carte.

Passer la souris dessus pour voir le nom de la station.

Cliquer dessus pour voir les observations et prévisions météorologiques.

Pour changer de carte: cliquez sur les boutons verts avec une croix noire pour zoomer, sur le bouton vert avec un tiret pour effectuer un zoom arrière, ou sur les flèches vertes pour les cartes adjacentes.


METAR-TAF: